sensor_id;sensor_type;location;lat;lon;timestamp;temperature;humidity
72883;DHT22;61017;37.812;-122.286;2023-07-20T00:00:09;18.20;94.90
72883;DHT22;61017;37.812;-122.286;2023-07-20T00:01:41;18.20;94.70
72883;DHT22;61017;37.812;-122.286;2023-07-20T00:03:19;18.30;94.80
72883;DHT22;61017;37.812;-122.286;2023-07-20T00:04:52;18.30;94.80
72883;DHT22;61017;37.812;-122.286;2023-07-20T00:06:25;18.30;94.70
72883;DHT22;61017;37.812;-122.286;2023-07-20T00:07:58;18.30;94.70
72883;DHT22;61017;37.812;-122.286;2023-07-20T00:09:30;18.30;94.60
72883;DHT22;61017;37.812;-122.286;2023-07-20T00:11:02;18.30;94.60
72883;DHT22;61017;37.812;-122.286;2023-07-20T00:12:33;18.30;94.50
72883;DHT22;61017;37.812;-122.286;2023-07-20T00:14:05;18.30;94.80
72883;DHT22;61017;37.812;-122.286;2023-07-20T00:15:37;18.30;94.50
72883;DHT22;61017;37.812;-122.286;2023-07-20T00:17:11;18.30;94.50
72883;DHT22;61017;37.812;-122.286;2023-07-20T00:18:43;18.30;94.40
72883;DHT22;61017;37.812;-122.286;2023-07-20T00:20:25;18.30;94.40
72883;DHT22;61017;37.812;-122.286;2023-07-20T00:21:57;18.30;94.20
72883;DHT22;61017;37.812;-122.286;2023-07-20T00:23:28;18.20;94.20
72883;DHT22;61017;37.812;-122.286;2023-07-20T00:25:00;18.20;94.30
72883;DHT22;61017;37.812;-122.286;2023-07-20T00:26:32;18.20;94.40
72883;DHT22;61017;37.812;-122.286;2023-07-20T00:28:04;18.20;94.30
72883;DHT22;61017;37.812;-122.286;2023-07-20T00:29:35;18.20;94.20
72883;DHT22;61017;37.812;-122.286;2023-07-20T00:31:07;18.10;94.20
72883;DHT22;61017;37.812;-122.286;2023-07-20T00:32:39;18.10;94.50
72883;DHT22;61017;37.812;-122.286;2023-07-20T00:34:13;18.00;94.60
72883;DHT22;61017;37.812;-122.286;2023-07-20T00:35:45;18.00;94.50
72883;DHT22;61017;37.812;-122.286;2023-07-20T00:37:17;18.10;94.90
72883;DHT22;61017;37.812;-122.286;2023-07-20T00:38:48;18.00;94.50
72883;DHT22;61017;37.812;-122.286;2023-07-20T00:40:20;18.00;94.40
72883;DHT22;61017;37.812;-122.286;2023-07-20T00:41:51;18.00;94.30
72883;DHT22;61017;37.812;-122.286;2023-07-20T00:43:23;17.90;94.40
72883;DHT22;61017;37.812;-122.286;2023-07-20T00:44:54;18.00;94.60
72883;DHT22;61017;37.812;-122.286;2023-07-20T00:46:26;18.00;94.60
72883;DHT22;61017;37.812;-122.286;2023-07-20T00:47:58;18.00;94.60
72883;DHT22;61017;37.812;-122.286;2023-07-20T00:49:30;18.00;94.50
72883;DHT22;61017;37.812;-122.286;2023-07-20T00:51:04;18.10;94.50
72883;DHT22;61017;37.812;-122.286;2023-07-20T00:52:37;18.00;94.40
72883;DHT22;61017;37.812;-122.286;2023-07-20T00:54:10;18.00;94.50
72883;DHT22;61017;37.812;-122.286;2023-07-20T00:55:44;18.00;94.50
72883;DHT22;61017;37.812;-122.286;2023-07-20T00:57:16;18.10;94.50
72883;DHT22;61017;37.812;-122.286;2023-07-20T00:58:56;18.10;94.30
72883;DHT22;61017;37.812;-122.286;2023-07-20T01:00:27;18.00;94.20
72883;DHT22;61017;37.812;-122.286;2023-07-20T01:01:59;18.10;94.40
72883;DHT22;61017;37.812;-122.286;2023-07-20T01:03:34;18.10;94.50
72883;DHT22;61017;37.812;-122.286;2023-07-20T01:05:06;18.10;94.50
72883;DHT22;61017;37.812;-122.286;2023-07-20T01:08:24;18.10;94.40
72883;DHT22;61017;37.812;-122.286;2023-07-20T01:13:33;18.10;94.40
72883;DHT22;61017;37.812;-122.286;2023-07-20T01:15:05;18.10;94.40
72883;DHT22;61017;37.812;-122.286;2023-07-20T01:16:40;18.10;94.40
72883;DHT22;61017;37.812;-122.286;2023-07-20T01:18:12;18.10;94.40
72883;DHT22;61017;37.812;-122.286;2023-07-20T01:19:43;18.10;94.40
72883;DHT22;61017;37.812;-122.286;2023-07-20T01:21:21;18.00;94.30
72883;DHT22;61017;37.812;-122.286;2023-07-20T01:25:29;18.00;94.30
72883;DHT22;61017;37.812;-122.286;2023-07-20T01:34:04;18.00;94.30
72883;DHT22;61017;37.812;-122.286;2023-07-20T01:36:02;18.00;94.20
72883;DHT22;61017;37.812;-122.286;2023-07-20T01:37:38;18.00;94.30
72883;DHT22;61017;37.812;-122.286;2023-07-20T01:39:21;18.00;94.20
72883;DHT22;61017;37.812;-122.286;2023-07-20T01:41:08;17.90;94.20
72883;DHT22;61017;37.812;-122.286;2023-07-20T01:43:05;18.00;94.30
72883;DHT22;61017;37.812;-122.286;2023-07-20T01:44:52;17.90;94.30
72883;DHT22;61017;37.812;-122.286;2023-07-20T01:46:29;18.00;94.40
72883;DHT22;61017;37.812;-122.286;2023-07-20T01:49:55;18.00;94.40
72883;DHT22;61017;37.812;-122.286;2023-07-20T01:51:45;18.00;94.40
72883;DHT22;61017;37.812;-122.286;2023-07-20T01:53:24;18.00;94.50
72883;DHT22;61017;37.812;-122.286;2023-07-20T01:55:07;18.00;94.50
72883;DHT22;61017;37.812;-122.286;2023-07-20T01:56:42;18.00;94.50
72883;DHT22;61017;37.812;-122.286;2023-07-20T01:58:34;18.10;94.60
72883;DHT22;61017;37.812;-122.286;2023-07-20T02:00:38;18.10;94.60
72883;DHT22;61017;37.812;-122.286;2023-07-20T02:02:13;18.10;94.70
72883;DHT22;61017;37.812;-122.286;2023-07-20T02:04:13;18.10;94.70
72883;DHT22;61017;37.812;-122.286;2023-07-20T02:06:16;18.00;94.60
72883;DHT22;61017;37.812;-122.286;2023-07-20T02:07:56;18.00;94.70
72883;DHT22;61017;37.812;-122.286;2023-07-20T02:09:30;18.00;94.90
72883;DHT22;61017;37.812;-122.286;2023-07-20T02:11:25;17.90;94.70
72883;DHT22;61017;37.812;-122.286;2023-07-20T02:12:59;17.90;94.90
72883;DHT22;61017;37.812;-122.286;2023-07-20T02:14:38;17.90;95.00
72883;DHT22;61017;37.812;-122.286;2023-07-20T02:16:18;17.90;95.00
72883;DHT22;61017;37.812;-122.286;2023-07-20T02:17:50;17.80;95.10
72883;DHT22;61017;37.812;-122.286;2023-07-20T02:19:25;17.80;95.10
72883;DHT22;61017;37.812;-122.286;2023-07-20T02:20:59;17.80;95.20
72883;DHT22;61017;37.812;-122.286;2023-07-20T02:22:42;17.80;95.20
72883;DHT22;61017;37.812;-122.286;2023-07-20T02:24:19;17.80;95.30
72883;DHT22;61017;37.812;-122.286;2023-07-20T02:25:56;17.80;95.40
72883;DHT22;61017;37.812;-122.286;2023-07-20T02:29:53;17.80;95.50
72883;DHT22;61017;37.812;-122.286;2023-07-20T02:31:48;17.80;95.50
72883;DHT22;61017;37.812;-122.286;2023-07-20T02:33:31;17.80;95.40
72883;DHT22;61017;37.812;-122.286;2023-07-20T02:35:09;17.90;95.40
72883;DHT22;61017;37.812;-122.286;2023-07-20T02:36:47;17.80;95.40
72883;DHT22;61017;37.812;-122.286;2023-07-20T02:38:19;17.80;95.30
72883;DHT22;61017;37.812;-122.286;2023-07-20T02:39:56;17.80;95.30
72883;DHT22;61017;37.812;-122.286;2023-07-20T02:41:36;17.80;95.30
72883;DHT22;61017;37.812;-122.286;2023-07-20T02:43:14;17.80;95.30
72883;DHT22;61017;37.812;-122.286;2023-07-20T02:45:01;17.80;95.30
72883;DHT22;61017;37.812;-122.286;2023-07-20T02:46:41;17.80;95.30
72883;DHT22;61017;37.812;-122.286;2023-07-20T02:48:13;17.80;95.30
72883;DHT22;61017;37.812;-122.286;2023-07-20T02:50:11;17.70;95.20
72883;DHT22;61017;37.812;-122.286;2023-07-20T02:51:51;17.70;95.50
72883;DHT22;61017;37.812;-122.286;2023-07-20T02:53:32;17.80;95.60
72883;DHT22;61017;37.812;-122.286;2023-07-20T02:55:16;18.10;93.60
72883;DHT22;61017;37.812;-122.286;2023-07-20T02:56:51;18.70;91.00
72883;DHT22;61017;37.812;-122.286;2023-07-20T02:58:25;19.20;87.20
72883;DHT22;61017;37.812;-122.286;2023-07-20T03:00:03;19.60;84.10
72883;DHT22;61017;37.812;-122.286;2023-07-20T03:01:47;20.00;82.00
72883;DHT22;61017;37.812;-122.286;2023-07-20T03:03:18;20.40;80.10
72883;DHT22;61017;37.812;-122.286;2023-07-20T03:04:54;20.60;78.50
72883;DHT22;61017;37.812;-122.286;2023-07-20T03:06:32;20.80;77.10
72883;DHT22;61017;37.812;-122.286;2023-07-20T03:08:04;20.90;76.50
72883;DHT22;61017;37.812;-122.286;2023-07-20T03:09:36;21.00;75.30
72883;DHT22;61017;37.812;-122.286;2023-07-20T03:11:08;21.10;74.80
72883;DHT22;61017;37.812;-122.286;2023-07-20T03:12:40;21.20;74.30
72883;DHT22;61017;37.812;-122.286;2023-07-20T03:14:11;21.30;73.60
72883;DHT22;61017;37.812;-122.286;2023-07-20T03:15:53;21.30;73.10
72883;DHT22;61017;37.812;-122.286;2023-07-20T03:17:28;21.40;72.60
72883;DHT22;61017;37.812;-122.286;2023-07-20T03:19:20;21.50;72.00
72883;DHT22;61017;37.812;-122.286;2023-07-20T03:20:57;21.60;71.70
72883;DHT22;61017;37.812;-122.286;2023-07-20T03:22:32;21.70;71.20
72883;DHT22;61017;37.812;-122.286;2023-07-20T03:24:04;21.70;71.20
72883;DHT22;61017;37.812;-122.286;2023-07-20T03:25:38;21.70;71.10
72883;DHT22;61017;37.812;-122.286;2023-07-20T03:27:36;21.80;71.00
72883;DHT22;61017;37.812;-122.286;2023-07-20T03:29:13;21.90;70.90
72883;DHT22;61017;37.812;-122.286;2023-07-20T03:30:55;21.90;70.80
72883;DHT22;61017;37.812;-122.286;2023-07-20T03:32:30;21.80;71.30
72883;DHT22;61017;37.812;-122.286;2023-07-20T03:34:08;21.80;71.70
72883;DHT22;61017;37.812;-122.286;2023-07-20T03:35:45;21.80;72.70
72883;DHT22;61017;37.812;-122.286;2023-07-20T03:37:26;21.80;74.30
72883;DHT22;61017;37.812;-122.286;2023-07-20T03:39:07;21.60;75.50
72883;DHT22;61017;37.812;-122.286;2023-07-20T03:41:04;21.50;76.30
72883;DHT22;61017;37.812;-122.286;2023-07-20T03:42:38;21.00;78.20
72883;DHT22;61017;37.812;-122.286;2023-07-20T03:44:11;20.50;80.30
72883;DHT22;61017;37.812;-122.286;2023-07-20T03:45:43;20.20;82.10
72883;DHT22;61017;37.812;-122.286;2023-07-20T03:47:26;20.30;79.00
72883;DHT22;61017;37.812;-122.286;2023-07-20T03:49:13;20.70;76.20
72883;DHT22;61017;37.812;-122.286;2023-07-20T03:50:46;21.00;74.10
72883;DHT22;61017;37.812;-122.286;2023-07-20T03:52:21;21.20;72.80
72883;DHT22;61017;37.812;-122.286;2023-07-20T03:53:53;21.40;71.90
72883;DHT22;61017;37.812;-122.286;2023-07-20T03:55:35;21.50;71.10
72883;DHT22;61017;37.812;-122.286;2023-07-20T03:57:07;21.60;70.30
72883;DHT22;61017;37.812;-122.286;2023-07-20T03:58:47;21.70;70.20
72883;DHT22;61017;37.812;-122.286;2023-07-20T04:00:49;21.80;69.30
72883;DHT22;61017;37.812;-122.286;2023-07-20T04:02:33;21.90;68.30
72883;DHT22;61017;37.812;-122.286;2023-07-20T04:04:11;21.90;67.80
72883;DHT22;61017;37.812;-122.286;2023-07-20T04:05:51;22.00;67.60
72883;DHT22;61017;37.812;-122.286;2023-07-20T04:07:36;22.00;67.30
72883;DHT22;61017;37.812;-122.286;2023-07-20T04:09:44;22.00;67.10
72883;DHT22;61017;37.812;-122.286;2023-07-20T04:13:07;22.10;66.70
72883;DHT22;61017;37.812;-122.286;2023-07-20T04:14:41;22.10;66.30
72883;DHT22;61017;37.812;-122.286;2023-07-20T04:16:16;22.20;66.60
72883;DHT22;61017;37.812;-122.286;2023-07-20T04:18:10;22.20;66.80
72883;DHT22;61017;37.812;-122.286;2023-07-20T04:19:53;22.20;67.30
72883;DHT22;61017;37.812;-122.286;2023-07-20T04:21:30;22.10;67.00
72883;DHT22;61017;37.812;-122.286;2023-07-20T04:23:05;22.10;67.60
72883;DHT22;61017;37.812;-122.286;2023-07-20T04:25:03;21.60;72.20
72883;DHT22;61017;37.812;-122.286;2023-07-20T04:26:44;21.10;75.20
72883;DHT22;61017;37.812;-122.286;2023-07-20T04:30:08;21.40;69.40
72883;DHT22;61017;37.812;-122.286;2023-07-20T04:31:42;21.50;68.50
72883;DHT22;61017;37.812;-122.286;2023-07-20T04:33:44;21.70;68.00
72883;DHT22;61017;37.812;-122.286;2023-07-20T04:35:56;21.80;67.50
72883;DHT22;61017;37.812;-122.286;2023-07-20T04:37:27;21.80;66.90
72883;DHT22;61017;37.812;-122.286;2023-07-20T04:38:59;21.90;66.50
72883;DHT22;61017;37.812;-122.286;2023-07-20T04:40:34;22.00;66.00
72883;DHT22;61017;37.812;-122.286;2023-07-20T04:44:25;22.00;65.40
72883;DHT22;61017;37.812;-122.286;2023-07-20T04:48:01;22.20;64.80
72883;DHT22;61017;37.812;-122.286;2023-07-20T04:49:38;22.20;65.20
72883;DHT22;61017;37.812;-122.286;2023-07-20T04:51:10;22.20;65.00
72883;DHT22;61017;37.812;-122.286;2023-07-20T04:52:53;22.20;65.10
72883;DHT22;61017;37.812;-122.286;2023-07-20T04:54:48;22.20;65.40
72883;DHT22;61017;37.812;-122.286;2023-07-20T04:59:03;22.30;65.40
72883;DHT22;61017;37.812;-122.286;2023-07-20T05:00:52;22.30;65.60
72883;DHT22;61017;37.812;-122.286;2023-07-20T05:02:37;22.30;65.60
72883;DHT22;61017;37.812;-122.286;2023-07-20T05:04:32;22.30;66.00
72883;DHT22;61017;37.812;-122.286;2023-07-20T05:08:51;22.10;68.00
72883;DHT22;61017;37.812;-122.286;2023-07-20T05:10:34;22.00;70.10
72883;DHT22;61017;37.812;-122.286;2023-07-20T05:12:09;21.90;71.30
72883;DHT22;61017;37.812;-122.286;2023-07-20T05:13:49;21.50;72.90
72883;DHT22;61017;37.812;-122.286;2023-07-20T05:19:24;20.80;73.90
72883;DHT22;61017;37.812;-122.286;2023-07-20T05:23:46;21.30;70.10
72883;DHT22;61017;37.812;-122.286;2023-07-20T05:25:18;21.60;68.20
72883;DHT22;61017;37.812;-122.286;2023-07-20T05:26:49;21.70;67.80
72883;DHT22;61017;37.812;-122.286;2023-07-20T05:28:21;21.80;67.10
72883;DHT22;61017;37.812;-122.286;2023-07-20T05:29:53;21.90;66.60
72883;DHT22;61017;37.812;-122.286;2023-07-20T05:31:27;21.90;65.90
72883;DHT22;61017;37.812;-122.286;2023-07-20T05:32:59;22.00;65.40
72883;DHT22;61017;37.812;-122.286;2023-07-20T05:34:31;22.10;65.50
72883;DHT22;61017;37.812;-122.286;2023-07-20T05:36:02;22.10;65.30
72883;DHT22;61017;37.812;-122.286;2023-07-20T05:37:57;22.10;65.00
72883;DHT22;61017;37.812;-122.286;2023-07-20T05:42:09;22.20;64.60
72883;DHT22;61017;37.812;-122.286;2023-07-20T05:48:08;22.40;64.20
72883;DHT22;61017;37.812;-122.286;2023-07-20T05:49:46;22.40;64.40
72883;DHT22;61017;37.812;-122.286;2023-07-20T05:51:18;22.40;64.50
72883;DHT22;61017;37.812;-122.286;2023-07-20T05:55:10;21.50;70.90
72883;DHT22;61017;37.812;-122.286;2023-07-20T05:56:45;20.90;73.40
72883;DHT22;61017;37.812;-122.286;2023-07-20T05:58:29;20.50;74.80
72883;DHT22;61017;37.812;-122.286;2023-07-20T06:00:03;20.30;76.40
72883;DHT22;61017;37.812;-122.286;2023-07-20T06:02:03;20.10;77.50
72883;DHT22;61017;37.812;-122.286;2023-07-20T06:03:43;19.90;78.90
72883;DHT22;61017;37.812;-122.286;2023-07-20T06:09:54;19.50;82.50
72883;DHT22;61017;37.812;-122.286;2023-07-20T06:13:49;19.30;84.10
72883;DHT22;61017;37.812;-122.286;2023-07-20T06:15:36;19.20;84.70
72883;DHT22;61017;37.812;-122.286;2023-07-20T06:17:13;19.10;85.10
72883;DHT22;61017;37.812;-122.286;2023-07-20T06:19:05;19.10;85.80
72883;DHT22;61017;37.812;-122.286;2023-07-20T06:20:49;19.00;86.30
72883;DHT22;61017;37.812;-122.286;2023-07-20T06:22:33;19.00;86.90
72883;DHT22;61017;37.812;-122.286;2023-07-20T06:26:34;18.90;87.80
72883;DHT22;61017;37.812;-122.286;2023-07-20T06:28:37;18.90;88.30
72883;DHT22;61017;37.812;-122.286;2023-07-20T06:30:17;18.80;88.70
72883;DHT22;61017;37.812;-122.286;2023-07-20T06:31:54;18.80;89.10
72883;DHT22;61017;37.812;-122.286;2023-07-20T06:33:38;18.80;89.40
72883;DHT22;61017;37.812;-122.286;2023-07-20T06:35:45;18.80;89.60
72883;DHT22;61017;37.812;-122.286;2023-07-20T06:39:51;18.70;90.00
72883;DHT22;61017;37.812;-122.286;2023-07-20T06:41:39;18.70;90.20
72883;DHT22;61017;37.812;-122.286;2023-07-20T06:43:14;18.60;90.30
72883;DHT22;61017;37.812;-122.286;2023-07-20T06:44:51;18.60;90.40
72883;DHT22;61017;37.812;-122.286;2023-07-20T06:46:25;18.60;90.40
72883;DHT22;61017;37.812;-122.286;2023-07-20T06:50:12;18.60;90.60
72883;DHT22;61017;37.812;-122.286;2023-07-20T06:51:44;18.60;90.70
72883;DHT22;61017;37.812;-122.286;2023-07-20T06:55:47;18.60;90.90
72883;DHT22;61017;37.812;-122.286;2023-07-20T06:57:25;18.50;91.00
72883;DHT22;61017;37.812;-122.286;2023-07-20T06:59:02;18.50;91.00
72883;DHT22;61017;37.812;-122.286;2023-07-20T07:00:41;18.50;91.30
72883;DHT22;61017;37.812;-122.286;2023-07-20T07:02:17;18.50;91.20
72883;DHT22;61017;37.812;-122.286;2023-07-20T07:03:52;18.50;91.20
72883;DHT22;61017;37.812;-122.286;2023-07-20T07:05:29;18.50;91.30
72883;DHT22;61017;37.812;-122.286;2023-07-20T07:07:01;18.50;91.30
72883;DHT22;61017;37.812;-122.286;2023-07-20T07:08:36;18.50;91.30
72883;DHT22;61017;37.812;-122.286;2023-07-20T07:10:08;18.50;91.40
72883;DHT22;61017;37.812;-122.286;2023-07-20T07:11:46;18.40;91.40
72883;DHT22;61017;37.812;-122.286;2023-07-20T07:13:25;18.50;91.80
72883;DHT22;61017;37.812;-122.286;2023-07-20T07:14:57;18.40;91.50
72883;DHT22;61017;37.812;-122.286;2023-07-20T07:16:29;18.40;91.60
72883;DHT22;61017;37.812;-122.286;2023-07-20T07:18:03;18.40;91.60
72883;DHT22;61017;37.812;-122.286;2023-07-20T07:19:38;18.40;91.60
72883;DHT22;61017;37.812;-122.286;2023-07-20T07:21:12;18.40;91.70
72883;DHT22;61017;37.812;-122.286;2023-07-20T07:22:44;18.40;91.70
72883;DHT22;61017;37.812;-122.286;2023-07-20T07:24:30;18.40;91.70
72883;DHT22;61017;37.812;-122.286;2023-07-20T07:26:05;18.40;91.80
72883;DHT22;61017;37.812;-122.286;2023-07-20T07:27:40;18.40;91.80
72883;DHT22;61017;37.812;-122.286;2023-07-20T07:29:12;18.40;91.90
72883;DHT22;61017;37.812;-122.286;2023-07-20T07:30:47;18.40;91.90
72883;DHT22;61017;37.812;-122.286;2023-07-20T07:32:19;18.40;91.90
72883;DHT22;61017;37.812;-122.286;2023-07-20T07:33:51;18.40;92.00
72883;DHT22;61017;37.812;-122.286;2023-07-20T07:35:26;18.30;92.00
72883;DHT22;61017;37.812;-122.286;2023-07-20T07:36:57;18.30;92.00
72883;DHT22;61017;37.812;-122.286;2023-07-20T07:38:49;18.30;92.10
72883;DHT22;61017;37.812;-122.286;2023-07-20T07:40:20;18.30;92.10
72883;DHT22;61017;37.812;-122.286;2023-07-20T07:41:52;18.30;92.20
72883;DHT22;61017;37.812;-122.286;2023-07-20T07:43:26;18.30;92.20
72883;DHT22;61017;37.812;-122.286;2023-07-20T07:44:58;18.30;92.20
72883;DHT22;61017;37.812;-122.286;2023-07-20T07:46:42;18.30;92.20
72883;DHT22;61017;37.812;-122.286;2023-07-20T07:48:16;18.30;92.30
72883;DHT22;61017;37.812;-122.286;2023-07-20T07:49:48;18.30;92.30
72883;DHT22;61017;37.812;-122.286;2023-07-20T07:51:22;18.30;92.30
72883;DHT22;61017;37.812;-122.286;2023-07-20T07:52:54;18.30;92.40
72883;DHT22;61017;37.812;-122.286;2023-07-20T07:54:29;18.30;92.40
72883;DHT22;61017;37.812;-122.286;2023-07-20T07:56:03;18.30;92.40
72883;DHT22;61017;37.812;-122.286;2023-07-20T07:57:38;18.30;92.40
72883;DHT22;61017;37.812;-122.286;2023-07-20T07:59:09;18.30;92.50
72883;DHT22;61017;37.812;-122.286;2023-07-20T08:00:44;18.30;92.60
72883;DHT22;61017;37.812;-122.286;2023-07-20T08:02:27;18.30;92.50
72883;DHT22;61017;37.812;-122.286;2023-07-20T08:04:01;18.30;92.60
72883;DHT22;61017;37.812;-122.286;2023-07-20T08:05:35;18.30;92.60
72883;DHT22;61017;37.812;-122.286;2023-07-20T08:07:10;18.30;92.60
72883;DHT22;61017;37.812;-122.286;2023-07-20T08:08:47;18.30;92.60
72883;DHT22;61017;37.812;-122.286;2023-07-20T08:10:42;18.30;92.70
72883;DHT22;61017;37.812;-122.286;2023-07-20T08:12:22;18.30;92.70
72883;DHT22;61017;37.812;-122.286;2023-07-20T08:13:59;18.20;92.60
72883;DHT22;61017;37.812;-122.286;2023-07-20T08:15:45;18.20;92.60
72883;DHT22;61017;37.812;-122.286;2023-07-20T08:17:44;18.20;92.70
72883;DHT22;61017;37.812;-122.286;2023-07-20T08:19:20;18.20;92.70
72883;DHT22;61017;37.812;-122.286;2023-07-20T08:20:54;18.20;92.80
72883;DHT22;61017;37.812;-122.286;2023-07-20T08:22:28;18.20;92.80
72883;DHT22;61017;37.812;-122.286;2023-07-20T08:24:02;18.20;92.80
72883;DHT22;61017;37.812;-122.286;2023-07-20T08:25:39;18.20;92.80
72883;DHT22;61017;37.812;-122.286;2023-07-20T08:27:15;18.20;92.80
72883;DHT22;61017;37.812;-122.286;2023-07-20T08:28:47;18.20;92.90
72883;DHT22;61017;37.812;-122.286;2023-07-20T08:30:25;18.20;92.90
72883;DHT22;61017;37.812;-122.286;2023-07-20T08:31:59;18.20;92.90
72883;DHT22;61017;37.812;-122.286;2023-07-20T08:33:31;18.20;92.90
72883;DHT22;61017;37.812;-122.286;2023-07-20T08:35:06;18.20;93.00
72883;DHT22;61017;37.812;-122.286;2023-07-20T08:36:41;18.20;93.10
72883;DHT22;61017;37.812;-122.286;2023-07-20T08:38:16;18.20;93.10
72883;DHT22;61017;37.812;-122.286;2023-07-20T08:40:11;18.20;93.10
72883;DHT22;61017;37.812;-122.286;2023-07-20T08:41:54;18.20;93.00
72883;DHT22;61017;37.812;-122.286;2023-07-20T08:43:31;18.20;93.10
72883;DHT22;61017;37.812;-122.286;2023-07-20T08:45:37;18.20;93.10
72883;DHT22;61017;37.812;-122.286;2023-07-20T08:47:14;18.20;93.10
72883;DHT22;61017;37.812;-122.286;2023-07-20T08:48:52;18.20;93.10
72883;DHT22;61017;37.812;-122.286;2023-07-20T08:50:30;18.20;93.20
72883;DHT22;61017;37.812;-122.286;2023-07-20T08:52:05;18.10;93.10
72883;DHT22;61017;37.812;-122.286;2023-07-20T08:54:06;18.40;92.40
72883;DHT22;61017;37.812;-122.286;2023-07-20T08:55:38;19.00;88.70
72883;DHT22;61017;37.812;-122.286;2023-07-20T08:57:14;19.50;84.10
72883;DHT22;61017;37.812;-122.286;2023-07-20T08:59:51;19.90;81.70
72883;DHT22;61017;37.812;-122.286;2023-07-20T09:04:27;20.90;76.30
72883;DHT22;61017;37.812;-122.286;2023-07-20T09:10:59;21.40;71.00
72883;DHT22;61017;37.812;-122.286;2023-07-20T09:13:18;21.50;69.90
72883;DHT22;61017;37.812;-122.286;2023-07-20T09:15:11;21.70;69.10
72883;DHT22;61017;37.812;-122.286;2023-07-20T09:18:50;21.80;67.60
72883;DHT22;61017;37.812;-122.286;2023-07-20T09:20:23;21.90;67.10
72883;DHT22;61017;37.812;-122.286;2023-07-20T09:21:58;21.90;66.60
72883;DHT22;61017;37.812;-122.286;2023-07-20T09:23:34;22.00;67.00
72883;DHT22;61017;37.812;-122.286;2023-07-20T09:25:18;22.00;66.80
72883;DHT22;61017;37.812;-122.286;2023-07-20T09:26:49;22.00;67.00
72883;DHT22;61017;37.812;-122.286;2023-07-20T09:28:21;22.00;67.00
72883;DHT22;61017;37.812;-122.286;2023-07-20T09:29:52;21.60;71.00
72883;DHT22;61017;37.812;-122.286;2023-07-20T09:31:26;21.00;73.90
72883;DHT22;61017;37.812;-122.286;2023-07-20T09:32:58;21.00;71.90
72883;DHT22;61017;37.812;-122.286;2023-07-20T09:34:31;21.10;69.80
72883;DHT22;61017;37.812;-122.286;2023-07-20T09:36:03;21.30;69.10
72883;DHT22;61017;37.812;-122.286;2023-07-20T09:37:50;21.40;68.40
72883;DHT22;61017;37.812;-122.286;2023-07-20T09:39:28;21.50;67.60
72883;DHT22;61017;37.812;-122.286;2023-07-20T09:41:12;21.60;66.90
72883;DHT22;61017;37.812;-122.286;2023-07-20T09:42:47;21.70;66.50
72883;DHT22;61017;37.812;-122.286;2023-07-20T09:44:23;21.80;65.80
72883;DHT22;61017;37.812;-122.286;2023-07-20T09:46:03;21.90;65.50
72883;DHT22;61017;37.812;-122.286;2023-07-20T09:47:37;21.90;65.10
72883;DHT22;61017;37.812;-122.286;2023-07-20T09:49:12;21.90;65.00
72883;DHT22;61017;37.812;-122.286;2023-07-20T09:50:49;22.00;64.60
72883;DHT22;61017;37.812;-122.286;2023-07-20T09:52:21;22.10;64.20
72883;DHT22;61017;37.812;-122.286;2023-07-20T09:53:56;22.00;64.20
72883;DHT22;61017;37.812;-122.286;2023-07-20T09:55:49;22.10;64.00
72883;DHT22;61017;37.812;-122.286;2023-07-20T09:57:21;22.10;64.00
72883;DHT22;61017;37.812;-122.286;2023-07-20T09:58:53;22.10;63.90
72883;DHT22;61017;37.812;-122.286;2023-07-20T10:00:24;22.20;64.00
72883;DHT22;61017;37.812;-122.286;2023-07-20T10:02:03;22.20;64.20
72883;DHT22;61017;37.812;-122.286;2023-07-20T10:03:39;22.20;64.80
72883;DHT22;61017;37.812;-122.286;2023-07-20T10:05:13;22.20;65.60
72883;DHT22;61017;37.812;-122.286;2023-07-20T10:06:47;22.10;66.60
72883;DHT22;61017;37.812;-122.286;2023-07-20T10:08:28;22.00;67.60
72883;DHT22;61017;37.812;-122.286;2023-07-20T10:10:02;21.90;69.50
72883;DHT22;61017;37.812;-122.286;2023-07-20T10:11:36;21.70;70.30
72883;DHT22;61017;37.812;-122.286;2023-07-20T10:13:25;21.60;70.90
72883;DHT22;61017;37.812;-122.286;2023-07-20T10:15:13;21.00;73.10
72883;DHT22;61017;37.812;-122.286;2023-07-20T10:16:55;20.60;75.30
72883;DHT22;61017;37.812;-122.286;2023-07-20T10:18:29;20.60;74.80
72883;DHT22;61017;37.812;-122.286;2023-07-20T10:20:02;20.80;71.30
72883;DHT22;61017;37.812;-122.286;2023-07-20T10:21:40;21.00;70.00
72883;DHT22;61017;37.812;-122.286;2023-07-20T10:23:12;21.30;68.50
72883;DHT22;61017;37.812;-122.286;2023-07-20T10:24:46;21.50;67.90
72883;DHT22;61017;37.812;-122.286;2023-07-20T10:26:17;21.60;67.10
72883;DHT22;61017;37.812;-122.286;2023-07-20T10:27:49;21.70;66.40
72883;DHT22;61017;37.812;-122.286;2023-07-20T10:29:22;21.80;65.60
72883;DHT22;61017;37.812;-122.286;2023-07-20T10:30:54;21.90;65.20
72883;DHT22;61017;37.812;-122.286;2023-07-20T10:32:25;22.00;64.60
72883;DHT22;61017;37.812;-122.286;2023-07-20T10:34:17;22.00;64.20
72883;DHT22;61017;37.812;-122.286;2023-07-20T10:35:56;22.00;63.80
72883;DHT22;61017;37.812;-122.286;2023-07-20T10:37:53;22.10;63.50
72883;DHT22;61017;37.812;-122.286;2023-07-20T10:39:30;22.10;63.00
72883;DHT22;61017;37.812;-122.286;2023-07-20T10:41:02;22.20;63.00
72883;DHT22;61017;37.812;-122.286;2023-07-20T10:42:34;22.20;62.80
72883;DHT22;61017;37.812;-122.286;2023-07-20T10:44:08;22.20;62.70
72883;DHT22;61017;37.812;-122.286;2023-07-20T10:47:13;22.30;62.70
72883;DHT22;61017;37.812;-122.286;2023-07-20T10:49:03;22.30;62.90
72883;DHT22;61017;37.812;-122.286;2023-07-20T10:50:36;22.30;63.20
72883;DHT22;61017;37.812;-122.286;2023-07-20T10:52:10;22.30;63.50
72883;DHT22;61017;37.812;-122.286;2023-07-20T10:53:48;22.30;64.00
72883;DHT22;61017;37.812;-122.286;2023-07-20T10:55:23;22.20;65.00
72883;DHT22;61017;37.812;-122.286;2023-07-20T10:57:28;22.10;66.30
72883;DHT22;61017;37.812;-122.286;2023-07-20T10:59:23;22.00;68.00
72883;DHT22;61017;37.812;-122.286;2023-07-20T11:01:08;21.80;69.00
72883;DHT22;61017;37.812;-122.286;2023-07-20T11:02:47;21.30;70.90
72883;DHT22;61017;37.812;-122.286;2023-07-20T11:04:18;20.90;72.80
72883;DHT22;61017;37.812;-122.286;2023-07-20T11:05:50;20.60;74.40
72883;DHT22;61017;37.812;-122.286;2023-07-20T11:07:48;20.80;71.50
72883;DHT22;61017;37.812;-122.286;2023-07-20T11:09:22;21.10;68.80